Time;durP1;ratioP1;P1;durP2;ratioP2;P2;SDS_P1;SDS_P2;PMS_P1;PMS_P2;Temp;Humidity;BMP_temperature;BMP_pressure;BME280_temperature;BME280_humidity;BME280_pressure;Samples;Min_cycle;Max_cycle;Signal;HPM_P1;HPM_P2
2023/01/23 00:01:16;;;;;;;42.90;17.80;;;;;;;1.99;100.00;100360.36;67777;1278;1016421;-59
2023/01/23 00:04:19;;;;;;;40.60;16.10;;;;;;;2.08;100.00;100364.67;67771;1278;1016391;-59
2023/01/23 00:07:21;;;;;;;;;;;;;;;2.05;100.00;100368.30;67849;1278;1016488;-59
2023/01/23 00:10:24;;;;;;;43.00;17.20;;;;;;;2.12;100.00;100374.67;65944;1278;4437235;-59
2023/01/23 00:13:27;;;;;;;39.60;16.40;;;;;;;2.10;100.00;100377.09;67794;1278;1016328;-59
2023/01/23 00:16:29;;;;;;;40.80;16.70;;;;;;;2.17;100.00;100373.80;67831;1278;1015932;-59
2023/01/23 00:19:31;;;;;;;41.60;16.80;;;;;;;2.24;100.00;100380.00;67841;1278;1018430;-59
2023/01/23 00:22:34;;;;;;;42.10;17.00;;;;;;;2.13;100.00;100381.40;67786;1278;1016256;-59
2023/01/23 00:25:36;;;;;;;39.70;16.20;;;;;;;2.05;100.00;100375.89;67785;1278;1016516;-59
2023/01/23 00:28:39;;;;;;;41.00;15.90;;;;;;;1.99;100.00;100377.28;67819;1278;1016436;-59
2023/01/23 00:31:41;;;;;;;42.50;17.10;;;;;;;1.98;100.00;100383.48;67855;1278;1016342;-59
2023/01/23 00:34:44;;;;;;;43.00;17.70;;;;;;;2.05;100.00;100381.23;67858;1278;1016246;-59
2023/01/23 00:37:47;;;;;;;43.20;16.80;;;;;;;2.05;100.00;100380.04;67794;1278;1016437;-59
2023/01/23 00:40:49;;;;;;;38.20;15.20;;;;;;;1.97;100.00;100372.44;67838;1278;1016392;-59
2023/01/23 00:43:52;;;;;;;40.40;16.50;;;;;;;1.90;100.00;100376.95;67842;1278;1016310;-59
2023/01/23 00:46:54;;;;;;;43.60;17.50;;;;;;;1.86;100.00;100382.64;67802;1278;1016909;-58
2023/01/23 00:49:57;;;;;;;44.40;18.40;;;;;;;1.85;100.00;100379.35;67758;1278;1016157;-59
2023/01/23 00:53:00;;;;;;;40.80;17.20;;;;;;;1.88;100.00;100378.33;67769;1278;1016472;-59
2023/01/23 00:56:02;;;;;;;43.00;17.80;;;;;;;1.84;100.00;100379.18;67802;1278;1016703;-59
2023/01/23 00:59:05;;;;;;;42.40;18.10;;;;;;;1.81;100.00;100383.85;67840;1278;1016490;-59
2023/01/23 01:02:08;;;;;;;37.90;15.80;;;;;;;1.80;100.00;100390.74;67823;1278;1016422;-59
2023/01/23 01:05:10;;;;;;;41.30;18.00;;;;;;;1.84;100.00;100394.36;67809;1278;1016102;-59
2023/01/23 01:08:13;;;;;;;38.70;16.30;;;;;;;1.91;100.00;100397.64;67778;1278;1016441;-59
2023/01/23 01:11:15;;;;;;;40.40;16.10;;;;;;;1.96;100.00;100399.71;67794;1278;1016300;-59
2023/01/23 01:14:17;;;;;;;41.20;17.00;;;;;;;1.93;100.00;100409.90;67665;1278;1016419;-59
2023/01/23 01:17:20;;;;;;;44.40;18.30;;;;;;;1.92;100.00;100416.10;67706;1278;1016431;-59
2023/01/23 01:20:24;;;;;;;44.50;19.10;;;;;;;1.96;100.00;100420.59;67800;1278;1017142;-59
2023/01/23 01:23:27;;;;;;;42.00;17.90;;;;;;;1.95;100.00;100426.11;67805;1278;1016303;-59
2023/01/23 01:26:29;;;;;;;42.00;18.10;;;;;;;1.96;100.00;100429.39;67845;1278;1016453;-59
2023/01/23 01:29:32;;;;;;;43.50;17.20;;;;;;;1.98;100.00;100431.63;67829;1278;1016403;-59
2023/01/23 01:32:34;;;;;;;42.00;17.10;;;;;;;2.03;100.00;100435.95;67806;1278;1016509;-59
2023/01/23 01:35:36;;;;;;;41.50;16.30;;;;;;;2.14;100.00;100438.18;67763;1278;1016306;-59
2023/01/23 01:38:39;;;;;;;42.50;16.90;;;;;;;2.10;100.00;100441.29;67815;1278;1016858;-59
2023/01/23 01:41:41;;;;;;;38.30;16.30;;;;;;;2.08;100.00;100442.84;67868;1278;1016350;-59
2023/01/23 01:44:44;;;;;;;40.20;17.00;;;;;;;2.08;100.00;100440.42;67819;1278;1016469;-59
2023/01/23 01:47:46;;;;;;;42.30;17.40;;;;;;;2.05;100.00;100436.81;67817;1278;1016405;-59
2023/01/23 01:50:48;;;;;;;42.80;17.30;;;;;;;1.97;100.00;100434.22;67789;1278;1016036;-59
2023/01/23 01:53:51;;;;;;;40.60;17.00;;;;;;;1.96;100.00;100436.98;67798;1278;1015934;-59
2023/01/23 01:56:53;;;;;;;41.90;17.80;;;;;;;1.89;100.00;100438.17;67804;1278;1016202;-59
2023/01/23 01:59:55;;;;;;;43.60;18.10;;;;;;;1.87;100.00;100449.05;67852;1278;1016081;-59
2023/01/23 02:02:59;;;;;;;48.70;17.80;;;;;;;1.99;100.00;100443.17;67836;1278;1016441;-59
2023/01/23 02:06:02;;;;;;;45.70;18.20;;;;;;;2.04;100.00;100437.67;67785;1278;1016403;-59
2023/01/23 02:09:04;;;;;;;41.70;17.50;;;;;;;1.95;100.00;100441.45;67824;1278;1016413;-59
2023/01/23 02:12:07;;;;;;;42.20;18.30;;;;;;;1.94;100.00;100446.12;67784;1278;1016224;-59
2023/01/23 02:15:09;;;;;;;41.90;18.20;;;;;;;1.87;100.00;100448.38;67805;1278;1019213;-59
2023/01/23 02:18:12;;;;;;;43.10;19.00;;;;;;;1.87;100.00;100452.34;67844;1278;1016404;-59
2023/01/23 02:21:14;;;;;;;42.40;18.40;;;;;;;1.96;100.00;100455.61;67853;1278;1016391;-59
2023/01/23 02:24:18;;;;;;;45.40;19.00;;;;;;;2.00;100.00;100459.41;67810;1278;1016406;-59
2023/01/23 02:27:20;;;;;;;42.60;17.70;;;;;;;2.03;100.00;100457.34;67817;1278;1016454;-59
2023/01/23 02:30:23;;;;;;;45.10;19.10;;;;;;;2.08;100.00;100452.17;67771;1278;1016294;-59
2023/01/23 02:33:25;;;;;;;43.70;18.40;;;;;;;2.03;100.00;100452.86;67693;1278;1016400;-59
2023/01/23 02:36:28;;;;;;;40.60;17.50;;;;;;;2.01;100.00;100455.45;67864;1278;1018970;-59
2023/01/23 02:39:30;;;;;;;42.70;17.80;;;;;;;2.10;100.00;100457.34;67863;1278;1016084;-59
2023/01/23 02:42:33;;;;;;;41.90;17.50;;;;;;;2.17;100.00;100455.78;67807;1278;1016400;-59
2023/01/23 02:45:35;;;;;;;43.40;18.00;;;;;;;2.22;100.00;100451.12;67801;1278;1016474;-59
2023/01/23 02:48:38;;;;;;;45.50;19.40;;;;;;;2.26;100.00;100456.63;67841;1278;1016393;-59
2023/01/23 02:51:41;;;;;;;45.30;18.50;;;;;;;2.23;100.00;100457.51;67791;1278;1016158;-59
2023/01/23 02:54:43;;;;;;;44.40;18.40;;;;;;;2.16;100.00;100463.20;67811;1278;1018942;-59
2023/01/23 02:57:46;;;;;;;41.80;18.50;;;;;;;2.19;100.00;100457.69;67807;1278;1016441;-59
2023/01/23 03:00:48;;;;;;;40.10;17.40;;;;;;;2.31;100.00;100451.29;67847;1278;1016434;-59
2023/01/23 03:03:52;;;;;;;42.30;18.10;;;;;;;2.33;100.00;100450.76;67808;1278;1016431;-59
2023/01/23 03:06:54;;;;;;;42.70;17.40;;;;;;;2.28;100.00;100450.42;67817;1278;1016456;-59
2023/01/23 03:09:57;;;;;;;44.40;18.00;;;;;;;2.19;100.00;100453.89;67810;1278;1016459;-59
2023/01/23 03:13:06;;;;;;;42.50;18.30;;;;;;;2.15;100.00;100448.02;67800;1278;1016476;-59
2023/01/23 03:16:08;;;;;;;43.30;17.80;;;;;;;2.08;100.00;100454.05;67830;1278;1016404;-59
2023/01/23 03:19:11;;;;;;;46.40;18.70;;;;;;;2.01;100.00;100462.17;67751;1278;1018338;-59
2023/01/23 03:22:13;;;;;;;45.10;19.10;;;;;;;2.01;100.00;100466.15;67832;1278;1016753;-59
2023/01/23 03:25:16;;;;;;;48.00;19.40;;;;;;;2.00;100.00;100459.76;67826;1278;1018584;-59
2023/01/23 03:31:34;;;;;;;43.10;18.30;;;;;;;1.99;100.00;100467.00;67841;1278;1018125;-59
2023/01/23 03:34:37;;;;;;;44.40;18.50;;;;;;;2.03;100.00;100466.84;67844;1278;1016485;-59
2023/01/23 03:37:39;;;;;;;46.60;19.00;;;;;;;1.94;100.00;100468.73;67764;1278;1016501;-59
2023/01/23 03:44:02;;;;;;;43.90;18.10;;;;;;;1.88;100.00;100481.66;67814;1278;1016300;-59
2023/01/23 03:47:04;;;;;;;45.30;17.30;;;;;;;1.80;100.00;100487.70;67817;1278;1016396;-59
2023/01/23 03:50:06;;;;;;;47.00;18.80;;;;;;;1.73;100.00;100487.50;67848;1278;1016540;-59
2023/01/23 03:53:09;;;;;;;45.30;18.30;;;;;;;1.71;100.00;100487.67;67829;1278;1017883;-59
2023/01/23 03:56:11;;;;;;;45.60;18.50;;;;;;;1.69;100.00;100493.19;67721;1278;1015649;-59
2023/01/23 03:59:14;;;;;;;44.20;17.00;;;;;;;1.66;100.00;100494.73;67797;1278;1015868;-58
2023/01/23 04:02:16;;;;;;;46.80;19.00;;;;;;;1.64;100.00;100495.77;67823;1278;1016679;-59
2023/01/23 04:05:19;;;;;;;44.40;16.90;;;;;;;1.68;100.00;100501.81;67848;1278;1016931;-59
2023/01/23 04:08:22;;;;;;;42.20;17.70;;;;;;;1.61;100.00;100502.65;67816;1278;1016480;-59
2023/01/23 04:11:25;;;;;;;43.50;18.10;;;;;;;1.62;100.00;100508.69;67803;1278;1016390;-59
2023/01/23 04:14:29;;;;;;;46.10;18.50;;;;;;;1.66;100.00;100509.56;67829;1278;1016287;-59
2023/01/23 04:17:31;;;;;;;45.00;17.80;;;;;;;1.65;100.00;100510.95;67778;1278;1016428;-59
2023/01/23 04:20:34;;;;;;;42.60;18.20;;;;;;;1.67;100.00;100514.39;67781;1278;1016199;-59
2023/01/23 04:23:36;;;;;;;43.70;16.80;;;;;;;1.66;100.00;100514.40;67807;1278;1018297;-59
2023/01/23 04:26:38;;;;;;;44.10;17.80;;;;;;;1.67;100.00;100509.39;67836;1278;1016436;-59
2023/01/23 04:29:41;;;;;;;40.20;16.10;;;;;;;1.70;100.00;100510.09;67867;1278;1016115;-60
2023/01/23 04:32:43;;;;;;;44.30;17.40;;;;;;;1.73;100.00;100512.17;67836;1278;1016860;-59
2023/01/23 04:35:46;;;;;;;43.10;17.00;;;;;;;1.72;100.00;100516.83;67801;1278;1016258;-59
2023/01/23 04:38:48;;;;;;;45.70;17.90;;;;;;;1.67;100.00;100517.16;67785;1278;1016330;-58
2023/01/23 04:41:51;;;;;;;42.00;16.70;;;;;;;1.71;100.00;100515.27;67862;1278;1016241;-59
2023/01/23 04:44:53;;;;;;;43.60;16.30;;;;;;;1.66;100.00;100520.61;67858;1278;1016460;-59
2023/01/23 04:47:55;;;;;;;43.40;17.00;;;;;;;1.64;100.00;100529.22;67837;1278;1016685;-59
2023/01/23 04:50:58;;;;;;;40.80;16.10;;;;;;;1.65;100.00;100531.98;67704;1278;1016603;-59
2023/01/23 04:54:00;;;;;;;42.90;17.30;;;;;;;1.71;100.00;100535.63;67825;1278;1016415;-59
2023/01/23 04:57:03;;;;;;;40.00;15.10;;;;;;;1.73;100.00;100539.08;67793;1278;1016461;-59
2023/01/23 05:00:05;;;;;;;40.90;16.20;;;;;;;1.73;100.00;100539.59;67838;1278;1016370;-59
2023/01/23 05:03:08;;;;;;;42.80;16.40;;;;;;;1.70;100.00;100544.41;67848;1278;1018311;-59
2023/01/23 05:06:10;;;;;;;38.20;15.10;;;;;;;1.69;100.00;100546.48;67834;1278;1015950;-59
2023/01/23 05:09:13;;;;;;;40.10;16.20;;;;;;;1.69;100.00;100543.73;67767;1278;1016208;-59
2023/01/23 05:12:15;;;;;;;;;;;;;;;1.69;100.00;100543.89;67849;1278;1016471;-59
2023/01/23 05:15:20;;;;;;;40.80;15.70;;;;;;;1.61;100.00;100550.24;67842;1278;1016069;-59
2023/01/23 05:18:22;;;;;;;36.30;15.10;;;;;;;1.58;100.00;100549.73;67872;1278;1016399;-59
2023/01/23 05:21:24;;;;;;;39.70;16.70;;;;;;;1.63;100.00;100553.36;67835;1278;1016460;-59
2023/01/23 05:24:27;;;;;;;45.60;16.40;;;;;;;1.63;100.00;100557.67;67804;1278;1016353;-59
2023/01/23 05:27:29;;;;;;;38.10;15.40;;;;;;;1.55;100.00;100556.77;67800;1278;1016412;-59
2023/01/23 05:30:32;;;;;;;40.50;17.90;;;;;;;1.54;100.00;100562.14;67833;1278;1016367;-59
2023/01/23 05:33:34;;;;;;;39.80;16.70;;;;;;;1.53;100.00;100560.74;67879;1278;1016362;-59
2023/01/23 05:36:36;;;;;;;37.50;15.10;;;;;;;1.51;100.00;100563.15;67824;1278;1016490;-59
2023/01/23 05:39:39;;;;;;;38.60;14.70;;;;;;;1.56;100.00;100563.16;67732;1278;1016166;-59
2023/01/23 05:42:42;;;;;;;36.80;14.80;;;;;;;1.54;100.00;100562.83;67793;1278;1016501;-59
2023/01/23 05:45:44;;;;;;;37.10;15.60;;;;;;;1.54;100.00;100568.50;67868;1278;1016269;-59
2023/01/23 05:48:46;;;;;;;41.50;15.30;;;;;;;1.49;100.00;100573.83;67832;1278;1016570;-59
2023/01/23 05:51:49;;;;;;;35.40;14.30;;;;;;;1.53;100.00;100581.60;67817;1278;1016189;-59
2023/01/23 05:54:51;;;;;;;39.30;15.40;;;;;;;1.56;100.00;100585.59;67796;1278;1016465;-59
2023/01/23 05:57:54;;;;;;;37.80;14.60;;;;;;;1.54;100.00;100589.02;67840;1278;1016333;-59
2023/01/23 06:00:56;;;;;;;33.90;14.00;;;;;;;1.54;100.00;100591.77;67823;1278;1017175;-59
2023/01/23 06:03:59;;;;;;;44.90;17.20;;;;;;;1.59;100.00;100597.14;67831;1278;1017484;-59
2023/01/23 06:07:01;;;;;;;49.70;18.90;;;;;;;1.55;100.00;100597.64;67812;1278;1016400;-59
2023/01/23 06:10:03;;;;;;;35.80;13.90;;;;;;;1.59;100.00;100590.95;67763;1278;1016451;-59
2023/01/23 06:13:06;;;;;;;39.60;15.20;;;;;;;1.60;100.00;100594.21;67823;1278;1016327;-59
2023/01/23 06:16:09;;;;;;;36.10;13.90;;;;;;;1.57;100.00;100594.90;67837;1278;1019614;-59
2023/01/23 06:19:11;;;;;;;;;;;;;;;1.61;100.00;100595.27;67835;1278;1016327;-59
2023/01/23 06:22:13;;;;;;;41.00;14.50;;;;;;;1.60;100.00;100600.26;67820;1278;1016490;-59
2023/01/23 06:25:17;;;;;;;34.70;14.30;;;;;;;1.62;100.00;100603.89;67822;1278;1016341;-59
2023/01/23 06:28:19;;;;;;;35.00;14.10;;;;;;;1.55;100.00;100604.22;67792;1278;1016107;-59
2023/01/23 06:31:22;;;;;;;43.60;20.00;;;;;;;1.57;100.00;100617.14;67818;1278;1017609;-59
2023/01/23 06:34:24;;;;;;;33.00;13.60;;;;;;;1.60;100.00;100618.02;67816;1278;1016428;-59
2023/01/23 06:37:26;;;;;;;54.10;23.60;;;;;;;1.63;100.00;100629.59;67849;1278;1016422;-59
2023/01/23 06:40:29;;;;;;;31.70;12.50;;;;;;;1.68;100.00;100627.71;67831;1278;1016390;-59
2023/01/23 06:43:31;;;;;;;34.30;13.80;;;;;;;1.72;100.00;100634.98;67829;1278;1016489;-59
2023/01/23 06:46:34;;;;;;;32.50;12.80;;;;;;;1.79;100.00;100637.23;67814;1278;1016457;-59
2023/01/23 06:49:36;;;;;;;32.20;13.10;;;;;;;1.84;100.00;100633.47;67810;1278;1016896;-58
2023/01/23 06:52:39;;;;;;;;;;;;;;;1.90;100.00;100636.42;67798;1278;1016260;-59
2023/01/23 06:55:42;;;;;;;35.10;13.30;;;;;;;1.89;100.00;100639.34;67836;1278;1016435;-59
2023/01/23 06:58:44;;;;;;;33.10;12.80;;;;;;;1.90;100.00;100640.39;67811;1278;1016477;-59
2023/01/23 07:01:47;;;;;;;;;;;;;;;1.92;100.00;100641.43;67864;1278;1016365;-59
2023/01/23 07:04:49;;;;;;;33.50;12.40;;;;;;;1.87;100.00;100649.17;67858;1278;1016241;-59
2023/01/23 07:07:52;;;;;;;33.80;13.50;;;;;;;1.81;100.00;100649.85;67693;1278;1016078;-58
2023/01/23 07:10:54;;;;;;;54.00;19.80;;;;;;;1.80;100.00;100656.05;67694;1278;1017533;-59
2023/01/23 07:13:57;;;;;;;41.30;16.80;;;;;;;1.82;100.00;100665.89;67772;1278;1016392;-59
2023/01/23 07:16:59;;;;;;;30.50;12.80;;;;;;;1.87;100.00;100672.65;67866;1278;1016385;-59
2023/01/23 07:20:02;;;;;;;37.20;13.90;;;;;;;1.97;100.00;100673.72;67809;1278;1017565;-59
2023/01/23 07:23:04;;;;;;;54.20;23.60;;;;;;;2.02;100.00;100677.53;67753;1278;1016247;-59
2023/01/23 07:26:08;;;;;;;45.70;16.90;;;;;;;2.07;100.00;100680.98;67813;1278;1018432;-59
2023/01/23 07:29:10;;;;;;;36.60;14.50;;;;;;;2.11;100.00;100689.46;67817;1278;1016460;-59
2023/01/23 07:32:13;;;;;;;37.40;14.90;;;;;;;2.14;100.00;100685.85;67817;1278;1016448;-59
2023/01/23 07:35:15;;;;;;;34.90;14.40;;;;;;;2.26;100.00;100689.34;67811;1278;1016609;-59
2023/01/23 07:38:18;;;;;;;34.30;13.70;;;;;;;2.29;100.00;100687.11;67831;1278;1015991;-58
2023/01/23 07:41:20;;;;;;;31.30;12.60;;;;;;;2.30;100.00;100687.45;67778;1278;1016425;-59
2023/01/23 07:44:23;;;;;;;32.10;13.10;;;;;;;2.32;100.00;100685.39;67815;1278;1016834;-59
2023/01/23 07:47:25;;;;;;;32.20;12.40;;;;;;;2.33;100.00;100686.42;67820;1278;1016288;-59
2023/01/23 07:50:28;;;;;;;31.70;12.70;;;;;;;2.35;100.00;100694.88;67814;1278;1016443;-59
2023/01/23 07:53:30;;;;;;;30.80;12.10;;;;;;;2.33;100.00;100693.33;67824;1278;1016384;-59
2023/01/23 07:56:33;;;;;;;33.20;12.90;;;;;;;2.33;100.00;100696.78;67818;1278;1016561;-60
2023/01/23 07:59:35;;;;;;;30.50;13.10;;;;;;;2.39;100.00;100697.66;67838;1278;1016197;-59
2023/01/23 08:02:38;;;;;;;32.30;12.00;;;;;;;2.46;100.00;100693.88;67693;1278;1016386;-59
2023/01/23 08:05:40;;;;;;;32.50;12.90;;;;;;;2.43;100.00;100693.52;67819;1278;1016654;-58
2023/01/23 08:08:43;;;;;;;33.50;12.80;;;;;;;2.61;100.00;100697.70;67804;1278;1016537;-59
2023/01/23 08:11:45;;;;;;;30.80;12.50;;;;;;;2.73;100.00;100703.94;67850;1278;1017487;-59
2023/01/23 08:14:48;;;;;;;30.80;12.60;;;;;;;2.80;100.00;100705.15;67747;1278;1016353;-59
2023/01/23 08:17:53;;;;;;;31.00;12.30;;;;;;;2.89;100.00;100702.73;67804;1278;1016364;-59
2023/01/23 08:20:55;;;;;;;34.50;12.90;;;;;;;2.90;100.00;100697.90;67855;1278;1016447;-59
2023/01/23 08:23:57;;;;;;;32.60;12.40;;;;;;;2.71;100.00;100695.30;67855;1278;1016288;-59
2023/01/23 08:27:00;;;;;;;32.10;13.20;;;;;;;2.76;100.00;100698.60;67835;1278;1016132;-59
2023/01/23 08:30:02;;;;;;;33.60;14.00;;;;;;;2.75;100.00;100700.31;67835;1278;1016186;-59
2023/01/23 08:33:05;;;;;;;34.70;13.90;;;;;;;2.68;100.00;100705.48;67804;1278;1016079;-59
2023/01/23 08:36:07;;;;;;;35.40;14.50;;;;;;;2.66;100.00;100708.77;67775;1278;1016702;-59
2023/01/23 08:39:10;;;;;;;34.50;13.80;;;;;;;2.66;100.00;100713.09;67848;1278;1016154;-59
2023/01/23 08:42:12;;;;;;;33.90;13.50;;;;;;;2.69;100.00;100713.10;67845;1278;1016434;-59
2023/01/23 08:45:14;;;;;;;48.90;19.80;;;;;;;2.81;100.00;100719.85;67795;1278;1016321;-59
2023/01/23 08:48:17;;;;;;;34.00;13.80;;;;;;;2.77;100.00;100727.96;67795;1278;1016540;-59
2023/01/23 08:51:19;;;;;;;34.10;15.30;;;;;;;2.88;100.00;100724.86;67723;1278;1016179;-59
2023/01/23 08:54:22;;;;;;;31.40;12.20;;;;;;;2.90;100.00;100726.77;67842;1278;1016507;-59
2023/01/23 08:57:25;;;;;;;31.80;12.30;;;;;;;2.86;100.00;100721.06;67819;1278;1016516;-59
2023/01/23 09:00:27;;;;;;;36.10;13.80;;;;;;;2.86;100.00;100722.96;67834;1278;1016429;-59
2023/01/23 09:03:30;;;;;;;31.70;12.30;;;;;;;2.79;100.00;100726.40;67843;1278;1016977;-59
2023/01/23 09:06:32;;;;;;;31.50;13.20;;;;;;;2.79;100.00;100723.13;67774;1278;1018046;-59
2023/01/23 09:09:34;;;;;;;32.60;13.00;;;;;;;2.84;100.00;100730.05;67801;1278;1016941;-59
2023/01/23 09:12:37;;;;;;;31.40;12.10;;;;;;;2.87;100.00;100730.40;67721;1278;1016218;-59
2023/01/23 09:15:39;;;;;;;30.40;11.80;;;;;;;2.93;100.00;100727.64;67836;1278;1016301;-59
2023/01/23 09:18:42;;;;;;;29.90;12.10;;;;;;;3.00;100.00;100727.81;67851;1278;1016170;-59
2023/01/23 09:21:44;;;;;;;31.90;13.20;;;;;;;2.97;100.00;100730.75;67831;1278;1017588;-59
2023/01/23 09:24:47;;;;;;;31.30;12.00;;;;;;;2.99;100.00;100731.44;67783;1278;1016517;-59
2023/01/23 09:27:49;;;;;;;34.50;12.90;;;;;;;2.99;100.00;100732.98;67839;1278;1016332;-59
2023/01/23 09:30:52;;;;;;;29.50;11.50;;;;;;;3.03;100.00;100727.29;67835;1278;1018695;-59
2023/01/23 09:33:54;;;;;;;30.60;12.00;;;;;;;3.01;100.00;100728.50;67886;1278;1016291;-59
2023/01/23 09:36:57;;;;;;;31.00;12.80;;;;;;;2.95;100.00;100731.96;67841;1278;1016159;-59
2023/01/23 09:40:00;;;;;;;37.80;14.70;;;;;;;2.88;100.00;100736.27;67799;1278;1016524;-59
2023/01/23 09:43:02;;;;;;;;;;;;;;;2.87;100.00;100740.77;67860;1278;1016455;-59
2023/01/23 09:46:05;;;;;;;54.50;22.50;;;;;;;2.91;100.00;100741.98;67778;1278;1016657;-59
2023/01/23 09:49:08;;;;;;;42.20;17.30;;;;;;;2.85;100.00;100744.39;67668;1278;1019515;-59
2023/01/23 09:52:10;;;;;;;;;;;;;;;2.84;100.00;100746.11;67843;1278;1017482;-59
2023/01/23 09:55:12;;;;;;;34.10;14.10;;;;;;;2.79;100.00;100743.17;67859;1278;1015803;-59
2023/01/23 09:58:15;;;;;;;32.00;12.20;;;;;;;2.82;100.00;100734.54;67834;1278;1016124;-59
2023/01/23 10:01:17;;;;;;;32.70;12.90;;;;;;;2.83;100.00;100728.32;67791;1278;1016661;-59
2023/01/23 10:04:20;;;;;;;32.90;12.50;;;;;;;2.86;100.00;100731.27;67685;1278;1016274;-59
2023/01/23 10:07:22;;;;;;;31.90;12.60;;;;;;;2.84;100.00;100732.81;67699;1278;1016053;-59
2023/01/23 10:10:24;;;;;;;30.40;12.00;;;;;;;2.89;100.00;100728.14;67787;1278;1016240;-59
2023/01/23 10:13:27;;;;;;;29.20;11.60;;;;;;;2.97;100.00;100720.38;67868;1278;1016387;-59
2023/01/23 10:16:29;;;;;;;29.30;11.70;;;;;;;3.09;100.00;100721.94;67812;1278;1016457;-59
2023/01/23 10:19:31;;;;;;;30.40;11.40;;;;;;;3.17;100.00;100716.77;67790;1278;1016294;-59
2023/01/23 10:22:34;;;;;;;29.00;12.40;;;;;;;3.31;100.00;100714.66;67811;1278;1016488;-59
2023/01/23 10:25:37;;;;;;;30.60;12.30;;;;;;;3.51;100.00;100710.83;67858;1278;1016529;-59
2023/01/23 10:28:40;;;;;;;28.00;11.10;;;;;;;3.57;100.00;100708.74;67804;1278;1016377;-59
2023/01/23 10:31:43;;;;;;;29.50;11.50;;;;;;;3.57;100.00;100708.22;67792;1278;1016088;-59
2023/01/23 10:34:46;;;;;;;28.30;11.30;;;;;;;3.68;100.00;100703.70;67812;1278;1016272;-59
2023/01/23 10:37:48;;;;;;;29.30;11.40;;;;;;;3.72;100.00;100702.48;67844;1278;1016702;-59
2023/01/23 10:44:11;;;;;;;31.10;13.20;;;;;;;3.75;100.00;100698.83;67851;1278;1016412;-59
2023/01/23 10:47:13;;;;;;;29.80;12.00;;;;;;;3.68;100.00;100700.76;67812;1278;1016525;-59
2023/01/23 10:50:16;;;;;;;35.30;13.10;;;;;;;3.51;100.00;100702.00;67777;1278;1016456;-59
2023/01/23 10:53:18;;;;;;;32.30;12.80;;;;;;;3.50;100.00;100698.89;67803;1278;1016352;-59
2023/01/23 10:56:20;;;;;;;37.20;14.50;;;;;;;3.47;100.00;100699.94;67801;1278;1016043;-59
2023/01/23 10:59:23;;;;;;;31.50;13.50;;;;;;;3.37;100.00;100700.30;67819;1278;1016474;-59
2023/01/23 11:02:25;;;;;;;35.20;14.80;;;;;;;3.24;100.00;100701.52;67803;1278;1017855;-59
2023/01/23 11:05:28;;;;;;;34.10;14.00;;;;;;;3.13;100.00;100695.48;67816;1278;1016158;-59
2023/01/23 11:08:30;;;;;;;34.40;14.80;;;;;;;3.08;100.00;100694.45;67794;1278;1017978;-59
2023/01/23 11:11:32;;;;;;;33.00;15.10;;;;;;;3.01;100.00;100688.05;67814;1278;1015925;-59
2023/01/23 11:14:37;;;;;;;33.10;14.10;;;;;;;2.95;100.00;100691.00;67875;1278;1016037;-59
2023/01/23 11:17:39;;;;;;;35.00;15.00;;;;;;;2.92;100.00;100682.53;67848;1256;1016002;-59
2023/01/23 11:20:42;;;;;;;34.00;14.40;;;;;;;3.00;100.00;100679.76;67791;1278;1016378;-59
2023/01/23 11:23:46;;;;;;;;;;;;;;;3.02;100.00;100679.06;67832;1278;1016565;-59
2023/01/23 11:26:48;;;;;;;32.10;14.00;;;;;;;3.05;100.00;100677.84;67793;1278;1016241;-59
2023/01/23 11:29:51;;;;;;;35.70;15.00;;;;;;;3.07;100.00;100679.76;67860;1278;1016273;-59
2023/01/23 11:32:53;;;;;;;34.30;15.40;;;;;;;3.07;100.00;100683.73;67879;1278;1016278;-59
2023/01/23 11:35:56;;;;;;;34.70;15.20;;;;;;;3.09;100.00;100674.40;67811;1278;1016149;-59
2023/01/23 11:38:58;;;;;;;33.30;14.80;;;;;;;3.18;100.00;100669.02;67721;1278;1016447;-59
2023/01/23 11:42:01;;;;;;;33.40;14.60;;;;;;;3.21;100.00;100668.34;67795;1278;1016416;-59
2023/01/23 11:45:03;;;;;;;32.40;14.30;;;;;;;3.21;100.00;100667.48;67852;1278;1018612;-59
2023/01/23 11:48:06;;;;;;;35.10;14.60;;;;;;;3.24;100.00;100666.60;67787;1278;1016058;-59
2023/01/23 11:51:08;;;;;;;34.10;15.30;;;;;;;3.23;100.00;100663.31;67817;1278;1016040;-59
2023/01/23 11:54:10;;;;;;;35.20;14.90;;;;;;;3.14;100.00;100664.70;67816;1278;1016196;-59
2023/01/23 11:57:13;;;;;;;31.80;14.00;;;;;;;3.10;100.00;100662.48;67808;1278;1016492;-59
2023/01/23 12:00:16;;;;;;;32.00;13.60;;;;;;;3.06;100.00;100666.61;67818;1278;1016459;-59
2023/01/23 12:03:18;;;;;;;34.40;14.20;;;;;;;3.01;100.00;100666.27;67767;1278;1015971;-59
2023/01/23 12:06:20;;;;;;;32.60;14.10;;;;;;;3.04;100.00;100668.18;67813;1278;1015795;-59
2023/01/23 12:09:23;;;;;;;31.60;12.30;;;;;;;3.08;100.00;100666.27;65311;1278;5371997;-59
2023/01/23 12:12:25;;;;;;;;;;;;;;;3.07;100.00;100659.52;67847;1278;1016427;-59
2023/01/23 12:15:28;;;;;;;33.40;14.10;;;;;;;3.07;100.00;100658.66;67798;1278;1016429;-59
2023/01/23 12:18:30;;;;;;;32.80;13.90;;;;;;;3.08;100.00;100653.31;67804;1278;1016587;-59
2023/01/23 12:21:32;;;;;;;34.10;13.60;;;;;;;3.11;100.00;100654.52;67782;1278;1016144;-59
2023/01/23 12:24:35;;;;;;;29.80;12.90;;;;;;;3.15;100.00;100656.74;67786;1278;1016342;-59
2023/01/23 12:27:37;;;;;;;33.00;13.90;;;;;;;3.17;100.00;100655.55;67828;1278;1016248;-59
2023/01/23 12:30:42;;;;;;;32.80;14.00;;;;;;;3.15;100.00;100658.14;67811;1278;1017648;-59
2023/01/23 12:33:45;;;;;;;31.80;13.40;;;;;;;3.11;100.00;100662.99;67770;1278;1016481;-59
2023/01/23 12:36:49;;;;;;;30.80;13.20;;;;;;;3.11;100.00;100664.54;67837;1278;1016656;-59
2023/01/23 12:39:52;;;;;;;32.00;12.80;;;;;;;3.03;100.00;100666.45;67823;1278;1018160;-59
2023/01/23 12:42:54;;;;;;;31.30;12.00;;;;;;;2.96;100.00;100669.40;67795;1278;1016422;-59
2023/01/23 12:45:58;;;;;;;30.80;13.60;;;;;;;2.95;100.00;100670.25;67776;1278;1016304;-59
2023/01/23 12:49:00;;;;;;;32.20;13.30;;;;;;;2.90;100.00;100666.80;67781;1278;1016381;-59
2023/01/23 12:52:03;;;;;;;32.20;14.20;;;;;;;2.86;100.00;100667.48;67787;1278;1016233;-59
2023/01/23 12:55:05;;;;;;;34.20;13.60;;;;;;;2.86;100.00;100672.67;67808;1278;1016446;-59
2023/01/23 12:58:08;;;;;;;32.10;13.30;;;;;;;2.81;100.00;100670.61;67813;1278;1016469;-59
2023/01/23 13:01:11;;;;;;;34.20;13.70;;;;;;;2.80;100.00;100670.08;67766;1278;1016473;-59
2023/01/23 13:04:14;;;;;;;31.20;12.60;;;;;;;2.82;100.00;100670.60;67793;1278;1016443;-59
2023/01/23 13:07:16;;;;;;;30.70;12.30;;;;;;;2.79;100.00;100668.52;67843;1278;1016642;-59
2023/01/23 13:10:18;;;;;;;30.80;12.40;;;;;;;2.83;100.00;100672.67;67773;1278;1016416;-59
2023/01/23 13:13:21;;;;;;;30.10;12.40;;;;;;;2.87;100.00;100673.71;67776;1278;1018989;-59
2023/01/23 13:16:23;;;;;;;30.30;12.40;;;;;;;2.92;100.00;100669.73;67812;1278;1015929;-59
2023/01/23 13:22:46;;;;;;;27.90;10.60;;;;;;;2.93;100.00;100675.95;67872;1278;1016089;-59
2023/01/23 13:25:48;;;;;;;26.10;10.00;;;;;;;2.82;100.00;100681.66;67843;1278;1016188;-59
2023/01/23 13:28:53;;;;;;;26.70;10.10;;;;;;;2.80;100.00;100677.68;67775;1278;1016093;-59
2023/01/23 13:31:57;;;;;;;26.50;10.30;;;;;;;2.76;100.00;100679.25;67803;1278;1015989;-59
2023/01/23 13:35:00;;;;;;;27.80;10.80;;;;;;;2.75;100.00;100680.98;67836;1278;1016228;-59
2023/01/23 13:38:03;;;;;;;26.30;10.50;;;;;;;2.76;100.00;100677.69;67780;1278;1016368;-59
2023/01/23 13:41:07;;;;;;;27.80;10.00;;;;;;;2.70;100.00;100679.23;67798;1278;1016492;-59
2023/01/23 13:44:09;;;;;;;27.10;11.10;;;;;;;2.69;100.00;100680.63;67742;1278;1016484;-59
2023/01/23 13:50:28;;;;;;;29.10;10.60;;;;;;;2.67;100.00;100681.13;67766;1278;1016430;-59